createdAt,value
2022-12-07T00:01:23.223Z,24.16
2022-12-07T00:03:52.555Z,24.17
2022-12-07T00:06:20.623Z,24.18
2022-12-07T00:08:48.704Z,24.17
2022-12-07T00:11:18.371Z,24.19
2022-12-07T00:13:46.110Z,24.18
2022-12-07T00:16:18.508Z,24.20
2022-12-07T00:18:46.232Z,24.19
2022-12-07T00:21:15.617Z,24.18
2022-12-07T00:23:44.085Z,24.19
2022-12-07T00:26:16.402Z,24.18
2022-12-07T00:28:48.119Z,24.19
2022-12-07T00:31:16.218Z,24.18
2022-12-07T00:33:43.218Z,24.18
2022-12-07T00:36:13.047Z,24.19
2022-12-07T00:38:40.861Z,24.19
2022-12-07T00:41:19.277Z,24.21
2022-12-07T00:43:47.754Z,24.22
2022-12-07T00:46:15.681Z,24.21
2022-12-07T00:48:42.936Z,24.21
2022-12-07T00:51:11.962Z,24.23
2022-12-07T00:53:41.558Z,24.23
2022-12-07T00:56:10.956Z,24.24
2022-12-07T00:58:37.856Z,24.24
2022-12-07T01:01:06.638Z,24.24
2022-12-07T01:03:33.841Z,24.23
2022-12-07T01:06:01.133Z,24.24
2022-12-07T01:08:28.684Z,24.25
2022-12-07T01:11:16.343Z,24.26
2022-12-07T01:13:43.868Z,24.24
2022-12-07T01:16:13.558Z,24.25
2022-12-07T01:18:41.643Z,24.25
2022-12-07T01:21:14.469Z,24.25
2022-12-07T01:23:41.558Z,24.25
2022-12-07T01:26:12.331Z,24.25
2022-12-07T01:28:39.668Z,24.25
2022-12-07T01:31:13.073Z,24.24
2022-12-07T01:33:40.501Z,24.22
2022-12-07T01:36:31.644Z,24.22
2022-12-07T01:39:00.835Z,24.21
2022-12-07T01:41:34.235Z,24.21
2022-12-07T01:44:27.087Z,24.20
2022-12-07T01:46:56.860Z,24.20
2022-12-07T01:49:23.538Z,24.19
2022-12-07T01:51:52.116Z,24.19
2022-12-07T01:54:21.222Z,24.20
2022-12-07T01:56:54.717Z,24.21
2022-12-07T01:59:24.480Z,24.22
2022-12-07T02:01:51.945Z,24.21
2022-12-07T02:04:19.507Z,24.22
2022-12-07T02:06:47.935Z,24.22
2022-12-07T02:09:15.199Z,24.21
2022-12-07T02:11:42.410Z,24.22
2022-12-07T02:14:09.146Z,24.23
2022-12-07T02:16:48.315Z,24.24
2022-12-07T02:19:52.539Z,24.25
2022-12-07T02:22:28.178Z,24.25
2022-12-07T02:25:13.460Z,24.25
2022-12-07T02:27:53.430Z,24.24
2022-12-07T02:30:28.590Z,24.25
2022-12-07T02:33:25.622Z,24.26
2022-12-07T02:35:58.305Z,24.25
2022-12-07T02:38:37.141Z,24.26
2022-12-07T02:41:13.094Z,24.27
2022-12-07T02:43:52.113Z,24.27
2022-12-07T02:46:24.420Z,24.27
2022-12-07T02:48:52.981Z,24.26
2022-12-07T02:51:20.491Z,24.26
2022-12-07T02:53:47.244Z,24.28
2022-12-07T02:56:29.042Z,24.28
2022-12-07T02:59:22.849Z,24.29
2022-12-07T03:02:13.995Z,24.28
2022-12-07T03:05:07.064Z,24.29
2022-12-07T03:08:04.928Z,24.29
2022-12-07T03:11:11.779Z,24.29
2022-12-07T03:14:00.589Z,24.29
2022-12-07T03:17:11.172Z,24.31
2022-12-07T03:19:38.833Z,24.30
2022-12-07T03:22:12.399Z,24.33
2022-12-07T03:24:51.200Z,24.34
2022-12-07T03:27:25.741Z,24.34
2022-12-07T03:30:20.260Z,24.35
2022-12-07T03:32:56.604Z,24.36
2022-12-07T03:35:49.929Z,24.38
2022-12-07T03:38:22.964Z,24.39
2022-12-07T03:41:01.179Z,24.41
2022-12-07T03:43:30.716Z,24.42
2022-12-07T03:46:16.773Z,24.44
2022-12-07T03:49:22.218Z,24.43
2022-12-07T03:51:57.910Z,24.44
2022-12-07T03:54:48.770Z,24.44
2022-12-07T03:57:16.819Z,24.44
2022-12-07T03:59:44.396Z,24.43
2022-12-07T04:02:14.713Z,24.44
2022-12-07T04:04:44.144Z,24.45
2022-12-07T04:07:12.035Z,24.44
2022-12-07T04:09:39.605Z,24.44
2022-12-07T04:12:07.182Z,24.45
2022-12-07T04:14:34.898Z,24.46
2022-12-07T04:17:03.206Z,24.47
2022-12-07T04:19:33.268Z,24.47
2022-12-07T04:22:02.326Z,24.47
2022-12-07T04:24:29.678Z,24.48
2022-12-07T04:26:56.756Z,24.49
2022-12-07T04:29:23.763Z,24.51
2022-12-07T04:31:50.714Z,24.53
2022-12-07T04:34:18.875Z,24.54
2022-12-07T04:36:46.553Z,24.55
2022-12-07T04:39:20.076Z,24.55
2022-12-07T04:41:46.920Z,24.54
2022-12-07T04:44:14.762Z,24.54
2022-12-07T04:46:42.116Z,24.54
2022-12-07T04:49:09.179Z,24.56
2022-12-07T04:51:35.870Z,24.57
2022-12-07T04:54:02.622Z,24.56
2022-12-07T04:56:29.435Z,24.54
2022-12-07T04:58:56.691Z,24.50
2022-12-07T05:01:24.771Z,24.46
2022-12-07T05:03:51.792Z,24.41
2022-12-07T05:06:18.596Z,24.35
2022-12-07T05:08:45.594Z,24.31
2022-12-07T05:11:13.725Z,24.27
2022-12-07T05:13:40.494Z,24.22
2022-12-07T05:16:07.366Z,24.19
2022-12-07T05:18:34.067Z,24.17
2022-12-07T05:21:00.756Z,24.14
2022-12-07T05:23:27.484Z,24.11
2022-12-07T05:25:54.141Z,24.08
2022-12-07T05:28:20.910Z,24.07
2022-12-07T05:30:47.635Z,24.04
2022-12-07T05:33:14.299Z,24.02
2022-12-07T05:35:40.969Z,23.99
2022-12-07T05:38:07.707Z,23.97
2022-12-07T05:40:34.418Z,23.96
2022-12-07T05:43:04.495Z,23.94
2022-12-07T05:45:32.048Z,23.93
2022-12-07T05:47:58.801Z,23.92
2022-12-07T05:50:25.768Z,23.90
2022-12-07T05:52:52.558Z,23.88
2022-12-07T05:55:19.227Z,23.87
2022-12-07T05:57:46.092Z,23.87
2022-12-07T06:00:13.381Z,23.86
2022-12-07T06:02:40.178Z,23.85
2022-12-07T06:05:07.465Z,23.84
2022-12-07T06:07:34.220Z,23.82
2022-12-07T06:10:01.282Z,23.81
2022-12-07T06:12:28.296Z,23.81
2022-12-07T06:14:55.068Z,23.80
2022-12-07T06:17:21.744Z,23.80
2022-12-07T06:19:48.459Z,23.79
2022-12-07T06:22:15.449Z,23.77
2022-12-07T06:24:42.126Z,23.76
2022-12-07T06:27:09.092Z,23.74
2022-12-07T06:29:35.788Z,23.73
2022-12-07T06:32:02.564Z,23.72
2022-12-07T06:34:29.280Z,23.71
2022-12-07T06:36:56.275Z,23.71
2022-12-07T06:39:28.226Z,23.70
2022-12-07T06:41:55.328Z,23.68
2022-12-07T06:44:22.864Z,23.68
2022-12-07T06:46:51.182Z,23.68
2022-12-07T06:49:17.942Z,23.68
2022-12-07T06:51:44.652Z,23.67
2022-12-07T06:54:13.530Z,23.65
2022-12-07T06:56:40.590Z,23.65
2022-12-07T06:59:08.690Z,23.64
2022-12-07T07:01:36.567Z,23.63
2022-12-07T07:04:04.254Z,23.62
2022-12-07T07:06:30.980Z,23.61
2022-12-07T07:08:57.741Z,23.60
2022-12-07T07:11:24.473Z,23.60
2022-12-07T07:13:51.125Z,23.58
2022-12-07T07:16:17.860Z,23.57
2022-12-07T07:18:44.576Z,23.57
2022-12-07T07:21:11.247Z,23.56
2022-12-07T07:23:37.967Z,23.55
2022-12-07T07:26:04.870Z,23.55
2022-12-07T07:28:31.592Z,23.53
2022-12-07T07:30:58.317Z,23.53
2022-12-07T07:33:25.063Z,23.52
2022-12-07T07:35:51.783Z,23.52
2022-12-07T07:38:18.548Z,23.50
2022-12-07T07:40:45.216Z,23.50
2022-12-07T07:43:11.910Z,23.50
2022-12-07T07:45:38.885Z,23.48
2022-12-07T07:48:05.840Z,23.48
2022-12-07T07:50:32.468Z,23.49
2022-12-07T07:52:59.552Z,23.48
2022-12-07T07:55:26.317Z,23.48
2022-12-07T07:57:54.993Z,23.47
2022-12-07T08:00:22.730Z,23.47
2022-12-07T08:02:49.445Z,23.47
2022-12-07T08:05:16.624Z,23.45
2022-12-07T08:07:43.429Z,23.45
2022-12-07T08:10:12.350Z,23.46
2022-12-07T08:12:40.740Z,23.45
2022-12-07T08:15:07.829Z,23.44
2022-12-07T08:17:34.512Z,23.44
2022-12-07T08:20:01.513Z,23.43
2022-12-07T08:22:28.449Z,23.42
2022-12-07T08:24:55.131Z,23.43
2022-12-07T08:27:21.776Z,23.43
2022-12-07T08:29:48.452Z,23.42
2022-12-07T08:32:15.107Z,23.42
2022-12-07T08:34:41.883Z,23.42
2022-12-07T08:37:08.509Z,23.42
2022-12-07T08:39:35.253Z,23.42
2022-12-07T08:42:01.915Z,23.42
2022-12-07T08:44:28.630Z,23.42
2022-12-07T08:46:59.848Z,23.42
2022-12-07T08:49:40.399Z,23.41
2022-12-07T08:52:07.030Z,23.37
2022-12-07T08:54:37.695Z,23.38
2022-12-07T08:57:05.463Z,23.37
2022-12-07T08:59:34.186Z,23.37
2022-12-07T09:02:00.952Z,23.37
2022-12-07T09:04:27.721Z,23.36
2022-12-07T09:06:55.775Z,23.36
2022-12-07T09:09:22.683Z,23.37
2022-12-07T09:11:49.378Z,23.36
2022-12-07T09:14:16.018Z,23.36
2022-12-07T09:16:42.653Z,23.36
2022-12-07T09:19:09.494Z,23.36
2022-12-07T09:21:36.220Z,23.36
2022-12-07T09:24:02.983Z,23.37
2022-12-07T09:26:29.726Z,23.36
2022-12-07T09:28:56.377Z,23.36
2022-12-07T09:31:24.877Z,23.37
2022-12-07T09:34:00.538Z,23.37
2022-12-07T09:36:28.456Z,23.36
2022-12-07T09:38:55.231Z,23.35
2022-12-07T09:41:24.814Z,23.35
2022-12-07T09:43:52.247Z,23.35
2022-12-07T09:46:21.493Z,23.36
2022-12-07T09:48:50.344Z,23.35
2022-12-07T09:51:25.987Z,23.37
2022-12-07T09:53:55.217Z,23.35
2022-12-07T09:56:23.761Z,23.35
2022-12-07T09:58:52.788Z,23.35
2022-12-07T10:01:22.132Z,23.35
2022-12-07T10:04:12.328Z,23.34
2022-12-07T10:06:39.255Z,23.33
2022-12-07T10:09:17.216Z,23.35
2022-12-07T10:12:19.475Z,23.34
2022-12-07T10:15:07.428Z,23.35
2022-12-07T10:17:48.280Z,23.34
2022-12-07T10:20:26.535Z,23.34
2022-12-07T10:23:14.168Z,23.33
2022-12-07T10:25:41.028Z,23.33
2022-12-07T10:28:13.043Z,23.34
2022-12-07T10:30:53.966Z,23.33
2022-12-07T10:33:49.815Z,23.33
2022-12-07T10:36:22.497Z,23.32
2022-12-07T10:39:06.376Z,23.32
2022-12-07T10:41:33.040Z,23.31
2022-12-07T10:43:59.875Z,23.31
2022-12-07T10:46:53.346Z,23.33
2022-12-07T10:49:29.254Z,23.32
2022-12-07T10:52:40.522Z,23.31
2022-12-07T10:55:10.209Z,23.30
2022-12-07T10:58:09.892Z,23.30
2022-12-07T11:01:06.141Z,23.30
2022-12-07T11:03:32.835Z,23.29
2022-12-07T11:06:12.125Z,23.29
2022-12-07T11:09:01.182Z,23.29
2022-12-07T11:11:49.866Z,23.28
2022-12-07T11:14:30.272Z,23.26
2022-12-07T11:16:58.333Z,23.23
2022-12-07T11:19:48.297Z,23.23
2022-12-07T11:22:17.574Z,23.22
2022-12-07T11:24:56.305Z,23.20
2022-12-07T11:27:37.931Z,23.18
2022-12-07T11:30:12.393Z,23.16
2022-12-07T11:32:44.986Z,23.14
2022-12-07T11:35:45.182Z,23.15
2022-12-07T11:38:24.613Z,23.13
2022-12-07T11:41:02.267Z,23.12
2022-12-07T11:43:33.944Z,23.11
2022-12-07T11:46:17.052Z,23.10
2022-12-07T11:48:53.070Z,23.09
2022-12-07T11:51:22.290Z,23.08
2022-12-07T11:54:13.275Z,23.07
2022-12-07T11:56:41.047Z,23.07
2022-12-07T11:59:37.285Z,23.07
2022-12-07T12:02:17.620Z,23.06
2022-12-07T12:05:25.693Z,23.07
2022-12-07T12:11:20.034Z,23.08
2022-12-07T12:17:15.344Z,23.08
2022-12-07T12:20:04.290Z,23.05
2022-12-07T12:22:47.848Z,23.04
2022-12-07T12:25:55.448Z,23.03
2022-12-07T12:28:51.708Z,23.04
2022-12-07T12:31:21.041Z,23.03
2022-12-07T12:33:53.682Z,23.02
2022-12-07T12:36:25.629Z,23.01
2022-12-07T12:39:13.643Z,22.99
2022-12-07T12:41:40.840Z,22.97
2022-12-07T12:44:42.772Z,22.97
2022-12-07T12:47:41.848Z,22.95
2022-12-07T12:50:19.511Z,22.93
2022-12-07T12:53:05.821Z,22.91
2022-12-07T12:55:50.824Z,22.91
2022-12-07T12:58:20.474Z,22.90
2022-12-07T13:00:48.603Z,22.89
2022-12-07T13:03:52.570Z,22.89
2022-12-07T13:06:25.385Z,22.88
2022-12-07T13:08:54.291Z,22.88
2022-12-07T13:11:34.581Z,22.88
2022-12-07T13:14:38.348Z,22.86
2022-12-07T13:17:05.052Z,22.86
2022-12-07T13:19:44.805Z,22.85
2022-12-07T13:22:33.169Z,22.84
2022-12-07T13:25:13.305Z,22.83
2022-12-07T13:27:44.945Z,22.81
2022-12-07T13:30:22.095Z,22.82
2022-12-07T13:32:59.909Z,22.81
2022-12-07T13:35:33.526Z,22.79
2022-12-07T13:38:04.896Z,22.79
2022-12-07T13:40:31.675Z,22.78
2022-12-07T13:43:04.956Z,22.78
2022-12-07T13:45:34.098Z,22.77
2022-12-07T13:48:01.776Z,22.77
2022-12-07T13:50:31.384Z,22.76
2022-12-07T13:53:02.026Z,22.75
2022-12-07T13:55:30.143Z,22.75
2022-12-07T13:57:57.385Z,22.76
2022-12-07T14:00:26.697Z,22.79
2022-12-07T14:03:21.088Z,22.83
2022-12-07T14:06:03.614Z,22.84
2022-12-07T14:08:31.945Z,22.88
2022-12-07T14:11:00.046Z,22.91
2022-12-07T14:13:36.834Z,22.92
2022-12-07T14:16:26.074Z,22.96
2022-12-07T14:18:53.185Z,22.97
2022-12-07T14:21:22.773Z,22.99
2022-12-07T14:24:20.805Z,23.01
2022-12-07T14:26:51.847Z,23.02
2022-12-07T14:29:34.282Z,23.05
2022-12-07T14:32:21.138Z,23.05
2022-12-07T14:34:59.209Z,23.06
2022-12-07T14:37:28.571Z,23.06
2022-12-07T14:39:56.692Z,23.06
2022-12-07T14:42:27.955Z,23.08
2022-12-07T14:44:54.857Z,23.08
2022-12-07T14:50:10.039Z,23.10
2022-12-07T14:55:32.067Z,23.13
2022-12-07T14:57:59.969Z,23.12
2022-12-07T15:00:28.591Z,23.13
2022-12-07T15:02:55.618Z,23.13
2022-12-07T15:05:22.835Z,23.13
2022-12-07T15:07:51.894Z,23.15
2022-12-07T15:10:24.959Z,23.15
2022-12-07T15:12:52.451Z,23.16
2022-12-07T15:15:19.143Z,23.16
2022-12-07T15:17:45.991Z,23.16
2022-12-07T15:20:15.131Z,23.16
2022-12-07T15:22:42.101Z,23.15
2022-12-07T15:25:13.698Z,23.16
2022-12-07T15:27:40.349Z,23.15
2022-12-07T15:30:07.956Z,23.15
2022-12-07T15:32:34.892Z,23.16
2022-12-07T15:35:02.153Z,23.16
2022-12-07T15:37:32.307Z,23.15
2022-12-07T15:40:04.113Z,23.15
2022-12-07T15:42:34.237Z,23.15
2022-12-07T15:45:01.183Z,23.15
2022-12-07T15:47:28.262Z,23.14
2022-12-07T15:49:57.590Z,23.14
2022-12-07T15:52:24.325Z,23.14
2022-12-07T15:54:51.025Z,23.15
2022-12-07T15:57:22.195Z,23.14
2022-12-07T15:59:51.969Z,23.14
2022-12-07T16:02:18.945Z,23.14
2022-12-07T16:04:45.696Z,23.15
2022-12-07T16:07:12.885Z,23.16
2022-12-07T16:09:39.679Z,23.16
2022-12-07T16:12:06.817Z,23.16
2022-12-07T16:14:34.451Z,23.16
2022-12-07T16:17:01.339Z,23.17
2022-12-07T16:19:28.271Z,23.17
2022-12-07T16:21:55.025Z,23.18
2022-12-07T16:24:21.804Z,23.17
2022-12-07T16:26:50.404Z,23.17
2022-12-07T16:29:20.279Z,23.16
2022-12-07T16:31:50.377Z,23.14
2022-12-07T16:34:17.411Z,23.13
2022-12-07T16:39:31.332Z,23.10
2022-12-07T16:41:58.088Z,23.10
2022-12-07T16:44:24.783Z,23.09
2022-12-07T16:46:51.591Z,23.07
2022-12-07T16:49:18.769Z,23.07
2022-12-07T16:51:45.513Z,23.07
2022-12-07T16:54:13.353Z,23.07
2022-12-07T16:56:40.900Z,23.09
2022-12-07T16:59:07.674Z,23.12
2022-12-07T17:01:34.625Z,23.14
2022-12-07T17:04:01.671Z,23.14
2022-12-07T17:06:29.684Z,23.15
2022-12-07T17:08:57.797Z,23.16
2022-12-07T17:11:30.387Z,23.17
2022-12-07T17:13:57.731Z,23.18
2022-12-07T17:16:24.606Z,23.18
2022-12-07T17:18:51.437Z,23.19
2022-12-07T17:21:18.453Z,23.20
2022-12-07T17:23:45.444Z,23.20
2022-12-07T17:26:15.955Z,23.20
2022-12-07T17:28:42.793Z,23.17
2022-12-07T17:31:12.130Z,23.15
2022-12-07T17:33:39.404Z,23.14
2022-12-07T17:36:12.972Z,23.13
2022-12-07T17:38:40.328Z,23.12
2022-12-07T17:41:18.512Z,23.12
2022-12-07T17:43:45.349Z,23.10
2022-12-07T17:46:12.228Z,23.11
2022-12-07T17:48:38.924Z,23.10
2022-12-07T17:51:05.714Z,23.11
2022-12-07T17:53:32.419Z,23.12
2022-12-07T17:58:45.749Z,23.09
2022-12-07T18:01:12.592Z,23.08
2022-12-07T18:03:39.486Z,23.07
2022-12-07T18:06:06.542Z,23.03
2022-12-07T18:08:36.360Z,23.01
2022-12-07T18:11:03.209Z,22.99
2022-12-07T18:13:30.478Z,22.98
2022-12-07T18:15:58.415Z,22.97
2022-12-07T18:18:26.339Z,22.96
2022-12-07T18:20:53.081Z,22.95
2022-12-07T18:23:20.077Z,22.94
2022-12-07T18:25:51.222Z,22.94
2022-12-07T18:28:18.212Z,22.93
2022-12-07T18:31:13.600Z,22.92
2022-12-07T18:33:31.823Z,22.92
2022-12-07T18:36:00.642Z,22.91
2022-12-07T18:38:30.755Z,22.92
2022-12-07T18:40:57.966Z,22.92
2022-12-07T18:43:25.289Z,22.92
2022-12-07T18:45:55.976Z,22.94
2022-12-07T18:48:23.283Z,22.95
2022-12-07T18:51:01.526Z,22.95
2022-12-07T18:53:28.387Z,22.92
2022-12-07T18:56:03.319Z,22.90
2022-12-07T18:58:30.105Z,22.87
2022-12-07T19:00:57.010Z,22.86
2022-12-07T19:03:27.430Z,22.83
2022-12-07T19:05:57.569Z,22.81
2022-12-07T19:08:25.542Z,22.81
2022-12-07T19:10:53.693Z,22.80
2022-12-07T19:13:20.485Z,22.81
2022-12-07T19:15:47.252Z,22.83
2022-12-07T19:18:13.971Z,22.83
2022-12-07T19:20:40.749Z,22.84
2022-12-07T19:23:07.554Z,22.84
2022-12-07T19:25:34.753Z,22.86
2022-12-07T19:28:01.600Z,22.86
2022-12-07T19:30:28.393Z,22.86
2022-12-07T19:32:55.163Z,22.88
2022-12-07T19:35:22.136Z,22.88
2022-12-07T19:37:49.095Z,22.87
2022-12-07T19:40:15.961Z,22.89
2022-12-07T19:42:42.782Z,22.89
2022-12-07T19:45:10.028Z,22.91
2022-12-07T19:47:36.775Z,22.93
2022-12-07T19:50:03.843Z,22.93
2022-12-07T19:52:36.361Z,22.92
2022-12-07T19:55:04.184Z,22.93
2022-12-07T19:57:31.059Z,22.94
2022-12-07T19:59:57.945Z,22.94
2022-12-07T20:02:24.800Z,22.99
2022-12-07T20:04:51.553Z,23.04
2022-12-07T20:07:18.415Z,23.07
2022-12-07T20:09:45.146Z,23.11
2022-12-07T20:12:12.188Z,23.15
2022-12-07T20:14:39.045Z,23.18
2022-12-07T20:17:06.190Z,23.21
2022-12-07T20:19:35.219Z,23.25
2022-12-07T20:22:02.028Z,23.27
2022-12-07T20:24:28.751Z,23.29
2022-12-07T20:26:55.435Z,23.33
2022-12-07T20:29:24.744Z,23.36
2022-12-07T20:31:53.722Z,23.36
2022-12-07T20:34:20.868Z,23.38
2022-12-07T20:36:47.670Z,23.40
2022-12-07T20:39:14.918Z,23.41
2022-12-07T20:41:41.814Z,23.43
2022-12-07T20:44:08.535Z,23.44
2022-12-07T20:46:35.615Z,23.46
2022-12-07T20:49:02.589Z,23.49
2022-12-07T20:51:29.732Z,23.49
2022-12-07T20:53:56.869Z,23.51
2022-12-07T20:56:27.112Z,23.53
2022-12-07T20:58:55.139Z,23.54
2022-12-07T21:01:21.974Z,23.55
2022-12-07T21:03:49.049Z,23.57
2022-12-07T21:06:18.191Z,23.59
2022-12-07T21:08:46.506Z,23.60
2022-12-07T21:11:14.306Z,23.61
2022-12-07T21:13:41.640Z,23.62
2022-12-07T21:16:16.113Z,23.63
2022-12-07T21:18:43.149Z,23.64
2022-12-07T21:21:10.374Z,23.65
2022-12-07T21:23:38.116Z,23.66
2022-12-07T21:26:13.034Z,23.68
2022-12-07T21:28:40.218Z,23.68
2022-12-07T21:31:14.770Z,23.68
2022-12-07T21:33:42.818Z,23.69
2022-12-07T21:36:11.868Z,23.70
2022-12-07T21:38:38.737Z,23.70
2022-12-07T21:41:19.684Z,23.71
2022-12-07T21:43:47.881Z,23.71
2022-12-07T21:46:16.146Z,23.71
2022-12-07T21:48:44.052Z,23.72
2022-12-07T21:51:13.469Z,23.73
2022-12-07T21:53:42.120Z,23.76
2022-12-07T21:56:24.107Z,23.78
2022-12-07T21:58:52.156Z,23.77
2022-12-07T22:01:22.218Z,23.78
2022-12-07T22:03:49.649Z,23.79
2022-12-07T22:06:22.109Z,23.79
2022-12-07T22:08:49.132Z,23.79
2022-12-07T22:11:16.681Z,23.80
2022-12-07T22:13:45.794Z,23.81
2022-12-07T22:16:12.558Z,23.81
2022-12-07T22:18:39.326Z,23.81
2022-12-07T22:21:06.073Z,23.81
2022-12-07T22:23:33.428Z,23.82
2022-12-07T22:26:04.375Z,23.83
2022-12-07T22:28:31.061Z,23.85
2022-12-07T22:31:03.491Z,23.87
2022-12-07T22:33:30.420Z,23.87
2022-12-07T22:35:57.156Z,23.88
2022-12-07T22:38:23.924Z,23.89
2022-12-07T22:40:50.633Z,23.90
2022-12-07T22:43:17.470Z,23.91
2022-12-07T22:45:44.342Z,23.94
2022-12-07T22:48:11.040Z,23.95
2022-12-07T22:50:37.745Z,23.96
2022-12-07T22:53:04.409Z,23.96
2022-12-07T22:55:31.166Z,23.97
2022-12-07T22:57:57.823Z,23.97
2022-12-07T23:00:24.647Z,23.97
2022-12-07T23:02:51.482Z,23.97
2022-12-07T23:05:18.237Z,23.97
2022-12-07T23:07:45.054Z,23.97
2022-12-07T23:10:12.110Z,23.98
2022-12-07T23:12:38.890Z,23.99
2022-12-07T23:15:06.773Z,23.97
2022-12-07T23:17:35.845Z,23.98
2022-12-07T23:20:03.651Z,23.98
2022-12-07T23:22:30.459Z,23.98
2022-12-07T23:24:57.188Z,23.98
2022-12-07T23:27:23.954Z,23.97
2022-12-07T23:29:50.836Z,23.99
2022-12-07T23:32:17.638Z,23.98
2022-12-07T23:34:44.367Z,23.99
2022-12-07T23:37:11.113Z,24.00
2022-12-07T23:39:37.803Z,24.01
2022-12-07T23:42:04.685Z,24.01
2022-12-07T23:44:31.466Z,24.02
2022-12-07T23:46:58.233Z,24.02
2022-12-07T23:49:24.986Z,24.02
2022-12-07T23:51:51.786Z,24.04
2022-12-07T23:54:18.706Z,24.04
2022-12-07T23:56:45.511Z,24.04
2022-12-07T23:59:12.890Z,24.04
